createdAt,value
2017-01-25T00:00:13.437Z,990.52
2017-01-25T00:01:22.119Z,990.44
2017-01-25T00:02:30.803Z,990.36
2017-01-25T00:03:39.489Z,990.29
2017-01-25T00:04:48.176Z,990.38
2017-01-25T00:05:56.861Z,990.33
2017-01-25T00:07:05.545Z,990.29
2017-01-25T00:08:14.228Z,990.3
2017-01-25T00:09:22.915Z,990.23
2017-01-25T00:10:31.602Z,990.19
2017-01-25T00:11:40.283Z,990.19
2017-01-25T00:12:49.016Z,990.22
2017-01-25T00:13:57.696Z,990.27
2017-01-25T00:15:06.382Z,990.29
2017-01-25T00:16:15.067Z,990.25
2017-01-25T00:17:23.755Z,990.23
2017-01-25T00:18:32.436Z,990.22
2017-01-25T00:19:41.122Z,990.28
2017-01-25T00:20:49.808Z,990.23
2017-01-25T00:21:58.495Z,990.18
2017-01-25T00:23:07.582Z,990.22
2017-01-25T00:24:16.267Z,990.23
2017-01-25T00:25:24.954Z,990.22
2017-01-25T00:26:33.635Z,990.19
2017-01-25T00:27:42.320Z,990.15
2017-01-25T00:28:51.000Z,990.2
2017-01-25T00:29:59.686Z,990.25
2017-01-25T00:31:08.375Z,990.26
2017-01-25T00:32:17.056Z,990.25
2017-01-25T00:33:25.765Z,990.3
2017-01-25T00:34:34.448Z,990.26
2017-01-25T00:35:43.140Z,990.19
2017-01-25T00:36:51.820Z,990.23
2017-01-25T00:38:00.540Z,990.25
2017-01-25T00:39:09.222Z,990.27
2017-01-25T00:40:17.906Z,990.26
2017-01-25T00:41:26.591Z,990.24
2017-01-25T00:42:35.279Z,990.3
2017-01-25T00:43:43.960Z,990.28
2017-01-25T00:44:52.646Z,990.27
2017-01-25T00:46:01.332Z,990.16
2017-01-25T00:47:10.412Z,990.16
2017-01-25T00:48:19.093Z,990.17
2017-01-25T00:49:27.776Z,990.14
2017-01-25T00:50:36.465Z,990.11
2017-01-25T00:51:45.148Z,990.18
2017-01-25T00:52:53.829Z,990.2
2017-01-25T00:54:02.514Z,990.21
2017-01-25T00:55:11.202Z,990.19
2017-01-25T00:56:19.883Z,990.21
2017-01-25T00:57:28.569Z,990.26
2017-01-25T00:58:37.249Z,990.26
2017-01-25T00:59:45.935Z,990.33
2017-01-25T01:00:55.018Z,990.35
2017-01-25T01:02:03.701Z,990.29
2017-01-25T01:03:12.384Z,990.31
2017-01-25T01:04:21.072Z,990.33
2017-01-25T01:05:29.779Z,990.31
2017-01-25T01:06:38.464Z,990.35
2017-01-25T01:07:47.145Z,990.37
2017-01-25T01:08:55.826Z,990.44
2017-01-25T01:10:04.513Z,990.36
2017-01-25T01:11:13.200Z,990.3
2017-01-25T01:12:21.894Z,990.26
2017-01-25T01:13:30.580Z,990.26
2017-01-25T01:14:39.266Z,990.31
2017-01-25T01:15:47.952Z,990.28
2017-01-25T01:16:56.652Z,990.25
2017-01-25T01:18:05.368Z,990.25
2017-01-25T01:19:14.050Z,990.29
2017-01-25T01:20:22.734Z,990.29
2017-01-25T01:21:31.443Z,990.31
2017-01-25T01:22:40.129Z,990.26
2017-01-25T01:23:48.812Z,990.27
2017-01-25T01:24:57.495Z,990.22
2017-01-25T01:26:06.184Z,990.16
2017-01-25T01:27:14.897Z,990.14
2017-01-25T01:28:23.586Z,990.14
2017-01-25T01:29:32.271Z,990.1
2017-01-25T01:30:40.985Z,990.09
2017-01-25T01:31:49.669Z,990.04
2017-01-25T01:32:58.777Z,990.05
2017-01-25T01:34:07.461Z,989.98
2017-01-25T01:35:16.148Z,989.96
2017-01-25T01:36:24.830Z,989.92
2017-01-25T01:37:33.514Z,990
2017-01-25T01:38:42.195Z,990.05
2017-01-25T01:39:50.883Z,990.12
2017-01-25T01:40:59.601Z,990.14
2017-01-25T01:42:08.289Z,990.22
2017-01-25T01:43:16.971Z,990.14
2017-01-25T01:44:25.654Z,990.12
2017-01-25T01:45:34.341Z,990.14
2017-01-25T01:46:43.052Z,990.18
2017-01-25T01:47:51.738Z,990.22
2017-01-25T01:49:00.428Z,990.31
2017-01-25T01:50:09.139Z,990.35
2017-01-25T01:51:17.830Z,990.33
2017-01-25T01:52:26.515Z,990.28
2017-01-25T01:53:35.200Z,990.28
2017-01-25T01:54:43.883Z,990.27
2017-01-25T01:55:52.616Z,990.25
2017-01-25T01:57:01.706Z,990.23
2017-01-25T01:58:10.396Z,990.17
2017-01-25T01:59:19.084Z,990.15
2017-01-25T02:00:27.763Z,990.14
2017-01-25T02:01:36.442Z,990.1
2017-01-25T02:02:45.127Z,990.15
2017-01-25T02:03:54.208Z,990.17
2017-01-25T02:05:02.891Z,990.16
2017-01-25T02:06:11.973Z,990.06
2017-01-25T02:07:20.658Z,990.01
2017-01-25T02:08:29.344Z,990.01
2017-01-25T02:09:38.026Z,990.05
2017-01-25T02:10:46.709Z,990.05
2017-01-25T02:11:55.387Z,990.06
2017-01-25T02:13:04.075Z,990
2017-01-25T02:14:12.754Z,990.03
2017-01-25T02:15:21.435Z,990.05
2017-01-25T02:16:30.117Z,990.01
2017-01-25T02:17:38.799Z,989.96
2017-01-25T02:18:47.511Z,989.95
2017-01-25T02:19:56.204Z,989.98
2017-01-25T02:21:04.890Z,990.02
2017-01-25T02:22:13.610Z,990.04
2017-01-25T02:23:22.296Z,990
2017-01-25T02:24:30.978Z,990.02
2017-01-25T02:25:39.692Z,990.02
2017-01-25T02:26:48.378Z,990.02
2017-01-25T02:27:57.064Z,989.96
2017-01-25T02:29:05.750Z,989.97
2017-01-25T02:30:14.435Z,990.01
2017-01-25T02:31:23.122Z,989.97
2017-01-25T02:32:31.810Z,989.99
2017-01-25T02:33:40.492Z,989.96
2017-01-25T02:34:49.180Z,989.96
2017-01-25T02:35:57.864Z,989.97
2017-01-25T02:37:06.547Z,989.94
2017-01-25T02:38:15.227Z,989.91
2017-01-25T02:39:23.917Z,989.88
2017-01-25T02:40:32.607Z,989.98
2017-01-25T02:41:41.294Z,990.03
2017-01-25T02:42:49.978Z,990.1
2017-01-25T02:43:58.661Z,990.11
2017-01-25T02:45:07.344Z,990.1
2017-01-25T02:46:16.032Z,990.11
2017-01-25T02:47:24.721Z,990.12
2017-01-25T02:48:33.412Z,990.17
2017-01-25T02:49:42.095Z,990.2
2017-01-25T02:50:50.779Z,990.26
2017-01-25T02:51:59.465Z,990.25
2017-01-25T02:53:08.147Z,990.23
2017-01-25T02:54:16.832Z,990.27
2017-01-25T02:55:25.520Z,990.24
2017-01-25T02:56:34.205Z,990.23
2017-01-25T02:57:42.885Z,990.18
2017-01-25T02:58:51.569Z,990.22
2017-01-25T03:00:00.253Z,990.27
2017-01-25T03:01:08.939Z,990.27
2017-01-25T03:02:17.626Z,990.24
2017-01-25T03:03:26.307Z,990.25
2017-01-25T03:04:34.992Z,990.2
2017-01-25T03:05:43.684Z,990.19
2017-01-25T03:06:52.364Z,990.19
2017-01-25T03:08:01.050Z,990.23
2017-01-25T03:09:09.735Z,990.15
2017-01-25T03:10:18.417Z,990.13
2017-01-25T03:11:27.098Z,990.15
2017-01-25T03:12:35.790Z,990.16
2017-01-25T03:13:44.473Z,990.25
2017-01-25T03:14:53.160Z,990.17
2017-01-25T03:16:01.846Z,990.21
2017-01-25T03:17:10.530Z,990.23
2017-01-25T03:18:19.222Z,990.25
2017-01-25T03:19:27.907Z,990.26
2017-01-25T03:20:36.592Z,990.19
2017-01-25T03:21:45.285Z,990.16
2017-01-25T03:22:53.964Z,990.2
2017-01-25T03:24:02.683Z,990.25
2017-01-25T03:25:11.366Z,990.18
2017-01-25T03:26:20.075Z,990.17
2017-01-25T03:27:29.184Z,990.15
2017-01-25T03:28:37.872Z,990.11
2017-01-25T03:29:46.559Z,990.17
2017-01-25T03:30:55.246Z,990.21
2017-01-25T03:32:03.940Z,990.26
2017-01-25T03:33:12.626Z,990.23
2017-01-25T03:34:21.311Z,990.21
2017-01-25T03:35:29.991Z,990.19
2017-01-25T03:36:38.679Z,990.21
2017-01-25T03:37:47.362Z,990.23
2017-01-25T03:38:56.044Z,990.21
2017-01-25T03:40:04.729Z,990.21
2017-01-25T03:41:13.413Z,990.17
2017-01-25T03:42:22.094Z,990.16
2017-01-25T03:43:30.781Z,990.19
2017-01-25T03:44:39.465Z,990.24
2017-01-25T03:45:48.144Z,990.25
2017-01-25T03:46:56.853Z,990.18
2017-01-25T03:48:05.542Z,990.18
2017-01-25T03:49:14.226Z,990.16
2017-01-25T03:50:22.908Z,990.16
2017-01-25T03:51:31.593Z,990.16
2017-01-25T03:52:40.276Z,990.11
2017-01-25T03:53:48.956Z,990.12
2017-01-25T03:54:57.640Z,990.14
2017-01-25T03:56:06.356Z,990.18
2017-01-25T03:57:15.049Z,990.22
2017-01-25T03:58:23.737Z,990.25
2017-01-25T03:59:32.418Z,990.23
2017-01-25T04:00:41.103Z,990.24
2017-01-25T04:01:49.788Z,990.23
2017-01-25T04:02:58.475Z,990.28
2017-01-25T04:04:07.162Z,990.31
2017-01-25T04:05:15.880Z,990.25
2017-01-25T04:06:24.968Z,990.21
2017-01-25T04:07:33.652Z,990.22
2017-01-25T04:08:42.733Z,990.23
2017-01-25T04:09:51.816Z,990.26
2017-01-25T04:11:00.531Z,990.24
2017-01-25T04:12:09.221Z,990.22
2017-01-25T04:13:17.903Z,990.24
2017-01-25T04:14:26.583Z,990.29
2017-01-25T04:15:35.265Z,990.29
2017-01-25T04:16:43.949Z,990.29
2017-01-25T04:17:52.631Z,990.29
2017-01-25T04:19:01.714Z,990.29
2017-01-25T04:20:10.395Z,990.25
2017-01-25T04:21:19.079Z,990.19
2017-01-25T04:22:27.761Z,990.16
2017-01-25T04:23:36.450Z,990.13
2017-01-25T04:24:45.133Z,990.1
2017-01-25T04:25:53.812Z,990.09
2017-01-25T04:27:02.492Z,990.16
2017-01-25T04:28:11.182Z,990.17
2017-01-25T04:29:19.863Z,990.18
2017-01-25T04:30:28.548Z,990.2
2017-01-25T04:31:37.235Z,990.17
2017-01-25T04:32:45.914Z,990.18
2017-01-25T04:33:54.597Z,990.23
2017-01-25T04:35:03.298Z,990.19
2017-01-25T04:36:12.012Z,990.21
2017-01-25T04:37:20.691Z,990.25
2017-01-25T04:38:29.374Z,990.19
2017-01-25T04:39:38.058Z,990.15
2017-01-25T04:40:46.743Z,990.11
2017-01-25T04:41:55.421Z,990.08
2017-01-25T04:43:04.114Z,990.06
2017-01-25T04:44:12.805Z,990.03
2017-01-25T04:45:21.486Z,990.06
2017-01-25T04:46:30.169Z,990.03
2017-01-25T04:47:38.852Z,990.08
2017-01-25T04:48:47.532Z,990.1
2017-01-25T04:49:56.220Z,990.12
2017-01-25T04:51:04.977Z,990.06
2017-01-25T04:52:13.666Z,990.02
2017-01-25T04:53:22.371Z,989.99
2017-01-25T04:54:31.051Z,990.05
2017-01-25T04:55:39.734Z,990.04
2017-01-25T04:56:48.432Z,990.02
2017-01-25T04:57:57.114Z,990.05
2017-01-25T04:59:05.795Z,990.01
2017-01-25T05:00:14.480Z,990.04
2017-01-25T05:01:23.169Z,990.04
2017-01-25T05:02:31.852Z,990.02
2017-01-25T05:03:40.532Z,990.02
2017-01-25T05:04:49.213Z,989.98
2017-01-25T05:05:57.898Z,989.95
2017-01-25T05:07:06.982Z,989.99
2017-01-25T05:08:15.767Z,990.03
2017-01-25T05:09:24.457Z,990.02
2017-01-25T05:10:33.138Z,990.11
2017-01-25T05:11:41.824Z,990.08
2017-01-25T05:12:50.515Z,990.05
2017-01-25T05:13:59.193Z,990.04
2017-01-25T05:15:08.277Z,990.05
2017-01-25T05:16:16.959Z,990.07
2017-01-25T05:17:26.038Z,990.11
2017-01-25T05:18:34.723Z,990.11
2017-01-25T05:19:43.407Z,990.14
2017-01-25T05:20:52.099Z,990.11
2017-01-25T05:22:00.796Z,990.19
2017-01-25T05:23:09.491Z,990.2
2017-01-25T05:24:18.187Z,990.17
2017-01-25T05:25:26.871Z,990.19
2017-01-25T05:26:35.552Z,990.24
2017-01-25T05:27:44.238Z,990.24
2017-01-25T05:28:52.928Z,990.22
2017-01-25T05:30:01.613Z,990.23
2017-01-25T05:31:10.302Z,990.19
2017-01-25T05:32:18.983Z,990.11
2017-01-25T05:33:27.666Z,990.15
2017-01-25T05:34:36.350Z,990.15
2017-01-25T05:35:45.035Z,990.13
2017-01-25T05:36:53.722Z,990.1
2017-01-25T05:38:02.406Z,990.11
2017-01-25T05:39:11.485Z,990.14
2017-01-25T05:40:20.168Z,990.15
2017-01-25T05:41:28.853Z,990.16
2017-01-25T05:42:37.540Z,990.18
2017-01-25T05:43:46.219Z,990.12
2017-01-25T05:44:54.902Z,990.11
2017-01-25T05:46:03.585Z,990.13
2017-01-25T05:47:12.276Z,990.12
2017-01-25T05:48:20.955Z,990.09
2017-01-25T05:49:29.636Z,990.08
2017-01-25T05:50:38.321Z,990.08
2017-01-25T05:51:47.004Z,990.11
2017-01-25T05:52:55.686Z,990.08
2017-01-25T05:54:04.369Z,990.08
2017-01-25T05:55:13.051Z,990.12
2017-01-25T05:56:21.739Z,990.02
2017-01-25T05:57:30.428Z,990.01
2017-01-25T05:58:39.108Z,989.98
2017-01-25T05:59:47.788Z,989.97
2017-01-25T06:00:56.474Z,989.99
2017-01-25T06:02:05.156Z,990
2017-01-25T06:03:13.842Z,989.99
2017-01-25T06:04:22.526Z,990.03
2017-01-25T06:05:31.203Z,990.02
2017-01-25T06:06:39.889Z,989.98
2017-01-25T06:07:48.572Z,989.99
2017-01-25T06:08:57.247Z,989.93
2017-01-25T06:10:06.329Z,989.96
2017-01-25T06:11:15.016Z,990.01
2017-01-25T06:12:23.716Z,990.05
2017-01-25T06:13:32.395Z,989.99
2017-01-25T06:14:41.080Z,990.01
2017-01-25T06:15:49.762Z,990.05
2017-01-25T06:16:58.443Z,990.01
2017-01-25T06:18:07.127Z,990.04
2017-01-25T06:19:15.811Z,990.04
2017-01-25T06:20:24.491Z,989.93
2017-01-25T06:21:33.181Z,989.98
2017-01-25T06:22:41.866Z,989.98
2017-01-25T06:23:50.547Z,989.96
2017-01-25T06:24:59.231Z,989.98
2017-01-25T06:26:07.924Z,989.93
2017-01-25T06:27:16.627Z,989.93
2017-01-25T06:28:25.310Z,989.93
2017-01-25T06:29:33.996Z,989.96
2017-01-25T06:30:42.677Z,989.89
2017-01-25T06:31:51.362Z,989.95
2017-01-25T06:33:00.052Z,989.95
2017-01-25T06:34:08.765Z,989.93
2017-01-25T06:35:17.445Z,989.99
2017-01-25T06:36:26.156Z,989.99
2017-01-25T06:37:34.846Z,989.98
2017-01-25T06:38:43.530Z,989.93
2017-01-25T06:39:52.212Z,989.9
2017-01-25T06:41:00.895Z,989.94
2017-01-25T06:42:09.581Z,989.98
2017-01-25T06:43:18.262Z,990
2017-01-25T06:44:26.944Z,990.02
2017-01-25T06:45:35.634Z,990
2017-01-25T06:46:44.315Z,989.92
2017-01-25T06:47:52.995Z,989.94
2017-01-25T06:49:01.681Z,989.93
2017-01-25T06:50:10.391Z,989.89
2017-01-25T06:51:19.328Z,989.91
2017-01-25T06:52:28.018Z,989.89
2017-01-25T06:53:36.702Z,989.88
2017-01-25T06:54:45.386Z,989.88
2017-01-25T06:55:54.088Z,989.86
2017-01-25T06:57:02.775Z,989.89
2017-01-25T06:58:11.468Z,989.85
2017-01-25T06:59:20.151Z,989.85
2017-01-25T07:00:28.830Z,989.86
2017-01-25T07:01:37.518Z,989.89
2017-01-25T07:02:46.202Z,989.84
2017-01-25T07:03:54.886Z,989.89
2017-01-25T07:05:03.567Z,989.94
2017-01-25T07:06:12.247Z,989.94
2017-01-25T07:07:20.932Z,989.92
2017-01-25T07:09:57.326Z,989.91
2017-01-25T07:11:06.023Z,989.9
2017-01-25T07:12:14.705Z,989.87
2017-01-25T07:13:23.392Z,989.87
2017-01-25T07:14:32.226Z,989.87
2017-01-25T07:15:40.912Z,989.84
2017-01-25T07:16:49.621Z,989.84
2017-01-25T07:17:58.304Z,989.86
2017-01-25T07:19:06.988Z,989.82
2017-01-25T07:20:15.815Z,989.82
2017-01-25T07:21:24.502Z,989.86
2017-01-25T07:22:33.189Z,989.88
2017-01-25T07:23:41.876Z,989.84
2017-01-25T07:24:50.556Z,989.82
2017-01-25T07:25:59.490Z,989.79
2017-01-25T07:27:08.177Z,989.83
2017-01-25T07:28:16.858Z,989.88
2017-01-25T07:29:25.578Z,989.89
2017-01-25T07:30:34.660Z,989.91
2017-01-25T07:31:43.497Z,989.96
2017-01-25T07:32:52.184Z,989.9
2017-01-25T07:34:00.871Z,989.89
2017-01-25T07:35:09.564Z,989.87
2017-01-25T07:36:18.257Z,989.85
2017-01-25T07:37:27.688Z,989.84
2017-01-25T07:38:36.371Z,989.89
2017-01-25T07:39:45.051Z,989.93
2017-01-25T07:40:53.741Z,989.94
2017-01-25T07:42:02.426Z,989.96
2017-01-25T07:43:11.233Z,989.96
2017-01-25T07:44:19.944Z,989.98
2017-01-25T07:45:28.632Z,990.02
2017-01-25T07:46:37.320Z,990.07
2017-01-25T07:47:46.003Z,990.04
2017-01-25T07:48:54.690Z,990.12
2017-01-25T07:50:03.380Z,990.07
2017-01-25T07:51:12.089Z,990.05
2017-01-25T07:52:20.806Z,990.05
2017-01-25T07:53:29.489Z,990.13
2017-01-25T07:54:40.322Z,990.18
2017-01-25T07:55:49.403Z,990.15
2017-01-25T07:56:58.085Z,990.18
2017-01-25T07:58:06.774Z,990.18
2017-01-25T07:59:15.457Z,990.2
2017-01-25T08:00:24.148Z,990.19
2017-01-25T08:01:32.834Z,990.21
2017-01-25T08:02:41.518Z,990.21
2017-01-25T08:03:50.209Z,990.21
2017-01-25T08:04:58.895Z,990.18
2017-01-25T08:06:07.581Z,990.23
2017-01-25T08:07:16.266Z,990.21
2017-01-25T08:08:24.946Z,990.16
2017-01-25T08:09:33.633Z,990.19
2017-01-25T08:10:42.319Z,990.19
2017-01-25T08:11:51.004Z,990.2
2017-01-25T08:12:59.691Z,990.23
2017-01-25T08:14:08.376Z,990.23
2017-01-25T08:15:17.062Z,990.21
2017-01-25T08:16:25.745Z,990.14
2017-01-25T08:17:34.427Z,990.18
2017-01-25T08:18:43.141Z,990.21
2017-01-25T08:19:51.824Z,990.26
2017-01-25T08:21:00.512Z,990.25
2017-01-25T08:22:09.200Z,990.25
2017-01-25T08:23:17.886Z,990.25
2017-01-25T08:24:26.568Z,990.22
2017-01-25T08:25:35.250Z,990.15
2017-01-25T08:26:43.936Z,990.17
2017-01-25T08:27:52.620Z,990.18
2017-01-25T08:29:01.307Z,990.17
2017-01-25T08:30:09.991Z,990.21
2017-01-25T08:31:18.671Z,990.17
2017-01-25T08:32:27.355Z,990.17
2017-01-25T08:33:36.036Z,990.22
2017-01-25T08:34:44.724Z,990.19
2017-01-25T08:35:53.411Z,990.2
2017-01-25T08:37:02.124Z,990.21
2017-01-25T08:38:10.809Z,990.21
2017-01-25T08:39:19.500Z,990.21
2017-01-25T08:40:28.184Z,990.2
2017-01-25T08:41:36.864Z,990.18
2017-01-25T08:42:45.551Z,990.2
2017-01-25T08:43:54.232Z,990.23
2017-01-25T08:45:02.922Z,990.27
2017-01-25T08:46:11.620Z,990.27
2017-01-25T08:47:20.306Z,990.28
2017-01-25T08:48:28.997Z,990.26
2017-01-25T08:49:37.687Z,990.23
2017-01-25T08:50:46.382Z,990.25
2017-01-25T08:51:55.065Z,990.18
2017-01-25T08:53:03.751Z,990.22
2017-01-25T08:54:12.446Z,990.23
2017-01-25T08:55:21.129Z,990.25
2017-01-25T08:56:29.812Z,990.25
2017-01-25T08:57:38.496Z,990.25
2017-01-25T08:58:47.184Z,990.17
2017-01-25T08:59:55.869Z,990.14
2017-01-25T09:01:04.553Z,990.19
2017-01-25T09:02:13.239Z,990.17
2017-01-25T09:03:21.924Z,990.17
2017-01-25T09:04:30.609Z,990.14
2017-01-25T09:05:39.296Z,990.14
2017-01-25T09:06:47.984Z,990.16
2017-01-25T09:07:56.671Z,990.13
2017-01-25T09:09:05.358Z,990.12
2017-01-25T09:10:14.077Z,990.14
2017-01-25T09:11:22.766Z,990.18
2017-01-25T09:12:31.521Z,990.25
2017-01-25T09:13:40.203Z,990.25
2017-01-25T09:14:48.889Z,990.2
2017-01-25T09:15:57.586Z,990.24
2017-01-25T09:17:06.268Z,990.22
2017-01-25T09:18:14.958Z,990.26
2017-01-25T09:19:23.651Z,990.33
2017-01-25T09:20:32.731Z,990.38
2017-01-25T09:21:41.417Z,990.34
2017-01-25T09:22:50.100Z,990.32
2017-01-25T09:23:58.789Z,990.28
2017-01-25T09:25:07.475Z,990.27
2017-01-25T09:26:16.164Z,990.27
2017-01-25T09:27:24.846Z,990.24
2017-01-25T09:28:33.532Z,990.23
2017-01-25T09:29:42.215Z,990.24
2017-01-25T09:30:50.899Z,990.3
2017-01-25T09:31:59.585Z,990.27
2017-01-25T09:33:08.272Z,990.29
2017-01-25T09:34:16.965Z,990.27
2017-01-25T09:35:25.655Z,990.27
2017-01-25T09:36:34.340Z,990.29
2017-01-25T09:37:43.032Z,990.3
2017-01-25T09:38:51.720Z,990.31
2017-01-25T09:40:00.404Z,990.3
2017-01-25T09:41:09.090Z,990.26
2017-01-25T09:42:17.775Z,990.28
2017-01-25T09:43:26.500Z,990.24
2017-01-25T09:44:35.186Z,990.28
2017-01-25T09:45:43.880Z,990.3
2017-01-25T09:46:52.564Z,990.31
2017-01-25T09:48:01.248Z,990.25
2017-01-25T09:49:09.938Z,990.27
2017-01-25T09:50:18.623Z,990.34
2017-01-25T09:51:27.309Z,990.32
2017-01-25T09:52:35.992Z,990.37
2017-01-25T09:53:44.680Z,990.3
2017-01-25T09:54:53.368Z,990.34
2017-01-25T09:56:02.056Z,990.32
2017-01-25T09:57:10.742Z,990.2
2017-01-25T09:58:19.453Z,990.21
2017-01-25T09:59:28.135Z,990.21
2017-01-25T10:00:36.819Z,990.16
2017-01-25T10:01:45.504Z,990.23
2017-01-25T10:02:54.186Z,990.22
2017-01-25T10:04:02.868Z,990.23
2017-01-25T10:05:11.561Z,990.26
2017-01-25T10:06:20.247Z,990.21
2017-01-25T10:07:28.959Z,990.22
2017-01-25T10:08:37.648Z,990.22
2017-01-25T10:09:46.729Z,990.18
2017-01-25T10:10:55.413Z,990.15
2017-01-25T10:12:04.099Z,990.19
2017-01-25T10:13:12.789Z,990.2
2017-01-25T10:14:21.474Z,990.18
2017-01-25T10:15:30.160Z,990.24
2017-01-25T10:16:38.861Z,990.12
2017-01-25T10:17:47.544Z,990.19
2017-01-25T10:18:56.232Z,990.17
2017-01-25T10:20:04.920Z,990.15
2017-01-25T10:21:13.652Z,990.17
2017-01-25T10:22:22.333Z,990.13
2017-01-25T10:23:31.015Z,990.11
2017-01-25T10:24:39.709Z,990.09
2017-01-25T10:25:48.401Z,990.1
2017-01-25T10:26:57.090Z,990.1
2017-01-25T10:28:05.780Z,990.07
2017-01-25T10:29:14.721Z,990.07
2017-01-25T10:30:23.403Z,990.09
2017-01-25T10:31:32.089Z,990.03
2017-01-25T10:32:40.773Z,990.06
2017-01-25T10:33:49.458Z,990.03
2017-01-25T10:34:58.395Z,989.99
2017-01-25T10:36:07.079Z,989.97
2017-01-25T10:37:15.759Z,989.94
2017-01-25T10:38:24.444Z,989.91
2017-01-25T10:39:33.132Z,989.9
2017-01-25T10:40:41.819Z,989.88
2017-01-25T10:41:50.502Z,989.87
2017-01-25T10:42:59.187Z,989.87
2017-01-25T10:44:07.873Z,989.86
2017-01-25T10:45:16.557Z,989.81
2017-01-25T10:46:25.239Z,989.86
2017-01-25T10:47:33.928Z,989.78
2017-01-25T10:48:42.613Z,989.76
2017-01-25T10:49:51.309Z,989.76
2017-01-25T10:50:59.989Z,989.78
2017-01-25T10:52:09.073Z,989.77
2017-01-25T10:53:17.764Z,989.74
2017-01-25T10:54:26.453Z,989.77
2017-01-25T10:55:35.136Z,989.74
2017-01-25T10:56:43.819Z,989.72
2017-01-25T10:57:52.506Z,989.72
2017-01-25T10:59:01.200Z,989.68
2017-01-25T11:00:09.918Z,989.71
2017-01-25T11:01:18.615Z,989.67
2017-01-25T11:02:27.300Z,989.68
2017-01-25T11:03:35.988Z,989.62
2017-01-25T11:04:44.671Z,989.61
2017-01-25T11:05:53.360Z,989.61
2017-01-25T11:07:02.051Z,989.61
2017-01-25T11:08:10.735Z,989.59
2017-01-25T11:09:19.417Z,989.59
2017-01-25T11:10:28.110Z,989.56
2017-01-25T11:11:36.804Z,989.59
2017-01-25T11:12:45.500Z,989.59
2017-01-25T11:13:54.187Z,989.63
2017-01-25T11:15:02.878Z,989.65
2017-01-25T11:16:11.566Z,989.62
2017-01-25T11:17:20.262Z,989.62
2017-01-25T11:18:28.947Z,989.66
2017-01-25T11:19:37.632Z,989.64
2017-01-25T11:20:46.314Z,989.61
2017-01-25T11:21:55.002Z,989.57
2017-01-25T11:23:03.687Z,989.58
2017-01-25T11:24:12.374Z,989.59
2017-01-25T11:25:21.060Z,989.56
2017-01-25T11:26:29.748Z,989.52
2017-01-25T11:27:38.434Z,989.49
2017-01-25T11:28:47.118Z,989.53
2017-01-25T11:29:55.809Z,989.55
2017-01-25T11:31:04.525Z,989.52
2017-01-25T11:32:13.214Z,989.52
2017-01-25T11:33:21.898Z,989.48
2017-01-25T11:34:30.582Z,989.48
2017-01-25T11:35:39.265Z,989.46
2017-01-25T11:36:47.948Z,989.43
2017-01-25T11:37:56.655Z,989.41
2017-01-25T11:39:05.349Z,989.46
2017-01-25T11:40:14.039Z,989.42
2017-01-25T11:41:22.719Z,989.46
2017-01-25T11:42:31.400Z,989.45
2017-01-25T11:43:40.082Z,989.45
2017-01-25T11:44:48.771Z,989.44
2017-01-25T11:45:57.457Z,989.45
2017-01-25T11:47:06.145Z,989.45
2017-01-25T11:48:14.825Z,989.45
2017-01-25T11:49:23.510Z,989.4
2017-01-25T11:50:32.193Z,989.39
2017-01-25T11:51:40.878Z,989.4
2017-01-25T11:52:49.562Z,989.34
2017-01-25T11:53:58.257Z,989.39
2017-01-25T11:55:06.947Z,989.37
2017-01-25T11:56:15.629Z,989.32
2017-01-25T11:57:24.315Z,989.34
2017-01-25T11:58:32.994Z,989.28
2017-01-25T11:59:41.684Z,989.32
2017-01-25T12:02:08.826Z,989.26
2017-01-25T12:03:17.506Z,989.24
2017-01-25T12:04:26.195Z,989.25
2017-01-25T12:05:34.886Z,989.23
2017-01-25T12:06:43.931Z,989.3
2017-01-25T12:07:52.615Z,989.28
2017-01-25T12:09:01.310Z,989.26
2017-01-25T12:10:09.995Z,989.29
2017-01-25T12:11:18.683Z,989.31
2017-01-25T12:12:27.519Z,989.34
2017-01-25T12:13:36.270Z,989.27
2017-01-25T12:14:44.981Z,989.29
2017-01-25T12:15:53.665Z,989.33
2017-01-25T12:17:02.356Z,989.29
2017-01-25T12:18:11.191Z,989.22
2017-01-25T12:19:20.282Z,989.17
2017-01-25T12:20:28.969Z,989.16
2017-01-25T12:21:37.660Z,989.14
2017-01-25T12:22:46.345Z,989.19
2017-01-25T12:23:55.178Z,989.2
2017-01-25T12:25:03.867Z,989.14
2017-01-25T12:26:12.550Z,989.09
2017-01-25T12:27:21.230Z,989.02
2017-01-25T12:28:29.917Z,989.07
2017-01-25T12:31:01.548Z,989.04
2017-01-25T12:32:10.241Z,988.97
2017-01-25T12:33:18.920Z,988.99
2017-01-25T12:34:27.605Z,988.96
2017-01-25T12:35:36.441Z,988.96
2017-01-25T12:36:45.126Z,988.94
2017-01-25T12:37:53.814Z,988.91
2017-01-25T12:39:02.507Z,988.92
2017-01-25T12:40:11.195Z,988.91
2017-01-25T12:41:19.981Z,988.87
2017-01-25T12:42:28.674Z,988.91
2017-01-25T12:43:37.364Z,988.9
2017-01-25T12:44:46.055Z,988.93
2017-01-25T12:45:54.740Z,988.9
2017-01-25T12:47:03.577Z,988.96
2017-01-25T12:48:12.303Z,988.91
2017-01-25T12:49:20.996Z,988.89
2017-01-25T12:50:29.680Z,988.9
2017-01-25T12:51:38.367Z,988.87
2017-01-25T12:52:47.352Z,988.87
2017-01-25T12:53:56.042Z,988.87
2017-01-25T12:55:04.761Z,988.82
2017-01-25T12:56:13.448Z,988.85
2017-01-25T12:57:22.131Z,988.89
2017-01-25T12:58:30.917Z,988.86
2017-01-25T12:59:39.612Z,988.86
2017-01-25T13:00:48.296Z,988.89
2017-01-25T13:01:56.977Z,988.88
2017-01-25T13:03:05.660Z,988.89
2017-01-25T13:04:14.498Z,988.8
2017-01-25T13:05:23.185Z,988.83
2017-01-25T13:06:31.868Z,988.89
2017-01-25T13:07:40.556Z,988.9
2017-01-25T13:08:49.246Z,988.85
2017-01-25T13:09:58.030Z,988.85
2017-01-25T13:11:06.720Z,988.84
2017-01-25T13:12:15.405Z,988.82
2017-01-25T13:13:24.091Z,988.79
2017-01-25T13:14:32.778Z,988.76
2017-01-25T13:15:41.579Z,988.77
2017-01-25T13:16:50.266Z,988.74
2017-01-25T13:17:58.952Z,988.77
2017-01-25T13:19:07.636Z,988.71
2017-01-25T13:20:16.319Z,988.74
2017-01-25T13:21:25.114Z,988.74
2017-01-25T13:22:33.815Z,988.67
2017-01-25T13:23:42.494Z,988.69
2017-01-25T13:24:51.179Z,988.65
2017-01-25T13:25:59.868Z,988.63
2017-01-25T13:27:08.858Z,988.64
2017-01-25T13:28:17.544Z,988.65
2017-01-25T13:29:26.233Z,988.67
2017-01-25T13:30:34.920Z,988.64
2017-01-25T13:31:43.603Z,988.64
2017-01-25T13:32:52.637Z,988.61
2017-01-25T13:34:01.335Z,988.6
2017-01-25T13:35:10.020Z,988.57
2017-01-25T13:36:18.708Z,988.53
2017-01-25T13:37:27.399Z,988.56
2017-01-25T13:38:36.191Z,988.51
2017-01-25T13:39:44.881Z,988.51
2017-01-25T13:40:53.574Z,988.47
2017-01-25T13:42:02.269Z,988.59
2017-01-25T13:43:10.960Z,988.59
2017-01-25T13:44:19.796Z,988.6
2017-01-25T13:45:28.485Z,988.6
2017-01-25T13:46:37.175Z,988.63
2017-01-25T13:47:45.875Z,988.59
2017-01-25T13:48:54.564Z,988.56
2017-01-25T13:50:03.279Z,988.52
2017-01-25T13:51:11.962Z,988.52
2017-01-25T13:52:20.647Z,988.55
2017-01-25T13:53:29.333Z,988.49
2017-01-25T13:54:38.015Z,988.56
2017-01-25T13:55:46.701Z,988.52
2017-01-25T13:56:55.398Z,988.5
2017-01-25T13:58:04.492Z,988.48
2017-01-25T13:59:13.182Z,988.48
2017-01-25T14:00:21.864Z,988.44
2017-01-25T14:01:30.554Z,988.5
2017-01-25T14:02:39.242Z,988.51
2017-01-25T14:03:47.931Z,988.43
2017-01-25T14:04:56.615Z,988.44
2017-01-25T14:06:05.303Z,988.43
2017-01-25T14:07:14.246Z,988.47
2017-01-25T14:08:22.933Z,988.48
2017-01-25T14:09:31.618Z,988.49
2017-01-25T14:10:40.305Z,988.46
2017-01-25T14:11:48.987Z,988.43
2017-01-25T14:12:58.428Z,988.44
2017-01-25T14:14:07.113Z,988.51
2017-01-25T14:15:15.796Z,988.48
2017-01-25T14:16:24.490Z,988.43
2017-01-25T14:17:33.189Z,988.5
2017-01-25T14:18:42.128Z,988.44
2017-01-25T14:19:50.820Z,988.51
2017-01-25T14:20:59.504Z,988.49
2017-01-25T14:22:08.194Z,988.54
2017-01-25T14:23:17.282Z,988.57